Flight Track Log - Related Links

Times and Time Zones

All times are in EDT time to prevent confusion due to time zone crossing. See the UAL501 flight status page for this flight to view local times or setup timezone preferences in your user account.

Time Position Orientation Groundspeed Altitude Reporting Facility
EDT Latitude Longitude Course Direction KTS MPH feet Rate Location/Type
07:17PM 41.9411 -72.6919 298° West 128 147 800  Level Boston Center
07:18PM 41.9614 -72.7436 298° West 176 203 2,900 2,609 Climbing Boston Center
07:19PM 41.9422 -72.8294 253° West 239 275 5,800 3,268 Climbing Boston Center
07:20PM 41.9303 -72.9317 261° West 270 311 9,600 3,049 Climbing Boston Center
07:21PM 41.9247 -73.0592 267° West 322 371 12,000 2,878 Climbing Boston Center
07:22PM 41.9175 -73.1886 266° West 349 402 15,500 2,927 Climbing Boston Center
07:23PM 41.8981 -73.3200 259° West 362 417 18,000 2,459 Climbing Boston Center
07:24PM 41.8367 -73.4522 238° Southwest 399 459 20,500 2,293 Climbing Boston Center
07:25PM 41.7778 -73.5825 239° Southwest 404 465 22,700 1,902 Climbing Boston Center
07:27PM 41.6800 -73.6811 217° Southwest 443 510 24,400 1,672 Climbing Boston Center
07:28PM 41.5906 -73.7886 222° Southwest 447 514 26,100 1,721 Climbing Boston Center
07:29PM 41.4947 -73.9011 221° Southwest 457 526 27,900 934 Climbing Boston Center
07:30PM 41.4014 -74.0114 222° Southwest 457 526 28,000 49 Climbing Boston Center
07:31PM 41.3075 -74.1225 222° Southwest 455 524 28,000  Level Boston Center
07:32PM 41.1953 -74.2542 221° Southwest 455 524 28,000  Level Boston Center
07:33PM 41.1014 -74.3642 221° Southwest 455 524 28,000  Level Boston Center
07:34PM 41.0017 -74.4800 221° Southwest 455 524 28,000 -49 Level Boston Center
07:35PM 40.9103 -74.5922 223° Southwest 454 522 27,900  Descending Boston Center
07:36PM 40.8450 -74.7233 237° Southwest 431 496 28,000 49 Climbing Boston Center
07:37PM 40.7856 -74.8561 239° Southwest 426 490 28,000  Level Boston Center
07:38PM 40.7256 -74.9872 239° Southwest 424 488 28,000 -49 Level Boston Center
07:39PM 40.6650 -75.1197 239° Southwest 424 488 27,900  Descending Boston Center
07:40PM 40.6039 -75.2525 239° Southwest 424 488 28,000 -246 Climbing Boston Center
07:41PM 40.5433 -75.3858 239° Southwest 424 488 27,400 -1,173 Descending Boston Center
07:42PM 40.4692 -75.5478 239° Southwest 425 489 25,400 -1,818 Descending New York Center
07:43PM 40.4117 -75.6747 239° Southwest 419 482 23,400 -2,650 Descending New York Center
07:44PM 40.3525 -75.7986 238° Southwest 407 468 20,100 -1,700 Descending New York Center
07:45PM 40.2972 -75.9144 238° Southwest 402 463 20,000 -50 Descending New York Center
07:46PM 40.2422 -76.0300 238° Southwest 391 450 20,000 -900 Level New York Center
07:47PM 40.1842 -76.1614 240° Southwest 384 442 18,200 -1,450 Descending New York Center
07:48PM 40.1292 -76.2711 237° Southwest 373 429 17,100 -900 Descending New York Center
07:49PM 40.0806 -76.3731 238° Southwest 373 429 16,400 -646 Descending New York Center
07:51PM 39.9500 -76.6500 238° Southwest 368 423 15,000 -444 Descending Potomac TRACON
07:52PM 39.9167 -76.7333 242° Southwest 365 420 15,000 -895 Level Potomac TRACON
07:53PM 39.8667 -76.8500 241° Southwest 361 415 13,300 -1,000 Descending Potomac TRACON
07:54PM 39.8167 -76.9500 237° Southwest 349 402 13,000 -450 Descending Potomac TRACON
07:55PM 39.7667 -77.0667 241° Southwest 349 402 12,400 -950 Descending Potomac TRACON
07:56PM 39.7167 -77.1667 237° Southwest 342 394 11,100 -1,263 Descending Potomac TRACON
07:57PM 39.6667 -77.2667 237° Southwest 338 389 10,000 -579 Descending Potomac TRACON
07:58PM 39.5833 -77.3167 205° Southwest 358 412 10,000 -400 Level Potomac TRACON
07:59PM 39.5000 -77.3333 189° South 306 352 9,200 -1,200 Descending Potomac TRACON
08:00PM 39.4167 -77.3667 197° South 296 341 7,600 -1,600 Descending Potomac TRACON
08:01PM 39.3333 -77.3667 180° South 292 336 6,000 -1,450 Descending Potomac TRACON
08:02PM 39.2500 -77.3667 180° South 282 325 4,700 -1,000 Descending Potomac TRACON
08:03PM 39.1667 -77.3500 171° South 256 295 4,000 -333 Descending Potomac TRACON
08:04PM 39.1000 -77.3500 180° South 244 281 4,000  Level Potomac TRACON
08:05PM 39.0333 -77.3500 180° South 237 273 4,000 -50 Level Potomac TRACON
08:06PM 38.9667 -77.3500 180° South 245 282 3,900 -500 Descending Potomac TRACON
08:07PM 38.9000 -77.3500 180° South 235 270 3,000 -429 Descending Potomac TRACON
08:08PM 38.8333 -77.3500 180° South 236 272 3,000  Level Potomac TRACON
08:09PM 38.7833 -77.3833 207° Southwest 221 254 3,000 -100 Level Potomac TRACON
08:10PM 38.8000 -77.4333 293° West 180 207 2,800 -550 Descending Potomac TRACON
08:11PM 38.8500 -77.4333 360° North 144 166 1,900 -800 Descending Potomac TRACON
08:12PM 38.8833 -77.4333 360° North 127 146 1,200 -700 Descending Potomac TRACON

Login

Don't have an account? Register now (free) for customized features, flight alerts, and more!